sensor_id;sensor_type;location;lat;lon;timestamp;P1;durP1;ratioP1;P2;durP2;ratioP2
11893;SDS011;6006;49.696;8.662;2023-09-19T00:00:55;1.75;;;0.70;;
11893;SDS011;6006;49.696;8.662;2023-09-19T00:03:23;1.20;;;0.80;;
11893;SDS011;6006;49.696;8.662;2023-09-19T00:05:52;2.40;;;0.88;;
11893;SDS011;6006;49.696;8.662;2023-09-19T00:08:20;4.97;;;0.80;;
11893;SDS011;6006;49.696;8.662;2023-09-19T00:10:51;3.10;;;0.88;;
11893;SDS011;6006;49.696;8.662;2023-09-19T00:13:18;2.70;;;0.90;;
11893;SDS011;6006;49.696;8.662;2023-09-19T00:15:46;1.88;;;0.90;;
11893;SDS011;6006;49.696;8.662;2023-09-19T00:18:14;2.35;;;1.00;;
11893;SDS011;6006;49.696;8.662;2023-09-19T00:20:42;2.95;;;1.02;;
11893;SDS011;6006;49.696;8.662;2023-09-19T00:23:14;1.10;;;1.00;;
11893;SDS011;6006;49.696;8.662;2023-09-19T00:25:41;2.13;;;0.85;;
11893;SDS011;6006;49.696;8.662;2023-09-19T00:28:08;2.90;;;1.05;;
11893;SDS011;6006;49.696;8.662;2023-09-19T00:30:35;1.20;;;0.77;;
11893;SDS011;6006;49.696;8.662;2023-09-19T00:33:03;1.08;;;0.77;;
11893;SDS011;6006;49.696;8.662;2023-09-19T00:35:32;1.02;;;0.82;;
11893;SDS011;6006;49.696;8.662;2023-09-19T00:37:59;1.90;;;1.27;;
11893;SDS011;6006;49.696;8.662;2023-09-19T00:40:28;2.25;;;1.00;;
11893;SDS011;6006;49.696;8.662;2023-09-19T00:42:57;1.45;;;0.70;;
11893;SDS011;6006;49.696;8.662;2023-09-19T00:45:26;2.30;;;0.95;;
11893;SDS011;6006;49.696;8.662;2023-09-19T00:47:53;2.88;;;1.00;;
11893;SDS011;6006;49.696;8.662;2023-09-19T00:50:22;1.75;;;1.25;;
11893;SDS011;6006;49.696;8.662;2023-09-19T00:52:53;2.58;;;0.75;;
11893;SDS011;6006;49.696;8.662;2023-09-19T00:55:22;2.25;;;1.00;;
11893;SDS011;6006;49.696;8.662;2023-09-19T00:57:52;1.48;;;0.80;;
11893;SDS011;6006;49.696;8.662;2023-09-19T01:00:21;0.75;;;0.75;;
11893;SDS011;6006;49.696;8.662;2023-09-19T01:02:49;1.88;;;0.63;;
11893;SDS011;6006;49.696;8.662;2023-09-19T01:05:16;1.65;;;1.10;;
11893;SDS011;6006;49.696;8.662;2023-09-19T01:07:44;3.28;;;0.90;;
11893;SDS011;6006;49.696;8.662;2023-09-19T01:10:14;3.30;;;1.10;;
11893;SDS011;6006;49.696;8.662;2023-09-19T01:12:47;0.98;;;0.60;;
11893;SDS011;6006;49.696;8.662;2023-09-19T01:15:21;1.88;;;1.20;;
11893;SDS011;6006;49.696;8.662;2023-09-19T01:18:00;2.97;;;1.05;;
11893;SDS011;6006;49.696;8.662;2023-09-19T01:20:37;1.30;;;0.93;;
11893;SDS011;6006;49.696;8.662;2023-09-19T01:23:11;1.35;;;1.20;;
11893;SDS011;6006;49.696;8.662;2023-09-19T01:28:45;2.20;;;1.17;;
11893;SDS011;6006;49.696;8.662;2023-09-19T01:31:21;3.13;;;1.08;;
11893;SDS011;6006;49.696;8.662;2023-09-19T01:33:53;1.98;;;1.20;;
11893;SDS011;6006;49.696;8.662;2023-09-19T01:36:25;1.77;;;0.90;;
11893;SDS011;6006;49.696;8.662;2023-09-19T01:38:52;2.00;;;1.00;;
11893;SDS011;6006;49.696;8.662;2023-09-19T01:41:29;2.05;;;1.30;;
11893;SDS011;6006;49.696;8.662;2023-09-19T01:44:06;1.33;;;1.10;;
11893;SDS011;6006;49.696;8.662;2023-09-19T01:46:42;1.50;;;1.02;;
11893;SDS011;6006;49.696;8.662;2023-09-19T01:49:14;1.38;;;0.95;;
11893;SDS011;6006;49.696;8.662;2023-09-19T01:51:50;1.23;;;0.80;;
11893;SDS011;6006;49.696;8.662;2023-09-19T01:54:24;1.02;;;0.90;;
11893;SDS011;6006;49.696;8.662;2023-09-19T01:56:57;1.15;;;1.10;;
11893;SDS011;6006;49.696;8.662;2023-09-19T01:59:31;1.58;;;1.17;;
11893;SDS011;6006;49.696;8.662;2023-09-19T02:02:06;1.20;;;1.10;;
11893;SDS011;6006;49.696;8.662;2023-09-19T02:04:35;2.83;;;1.23;;
11893;SDS011;6006;49.696;8.662;2023-09-19T02:07:02;1.52;;;1.33;;
11893;SDS011;6006;49.696;8.662;2023-09-19T02:09:30;1.73;;;1.40;;
11893;SDS011;6006;49.696;8.662;2023-09-19T02:12:00;1.88;;;1.17;;
11893;SDS011;6006;49.696;8.662;2023-09-19T02:14:29;3.17;;;1.40;;
11893;SDS011;6006;49.696;8.662;2023-09-19T02:16:57;1.42;;;1.33;;
11893;SDS011;6006;49.696;8.662;2023-09-19T02:19:26;1.63;;;1.10;;
11893;SDS011;6006;49.696;8.662;2023-09-19T02:21:53;1.50;;;1.38;;
11893;SDS011;6006;49.696;8.662;2023-09-19T02:24:20;2.78;;;1.50;;
11893;SDS011;6006;49.696;8.662;2023-09-19T02:26:47;4.20;;;1.30;;
11893;SDS011;6006;49.696;8.662;2023-09-19T02:29:13;1.98;;;1.55;;
11893;SDS011;6006;49.696;8.662;2023-09-19T02:31:40;2.20;;;1.40;;
11893;SDS011;6006;49.696;8.662;2023-09-19T02:34:07;3.53;;;1.60;;
11893;SDS011;6006;49.696;8.662;2023-09-19T02:36:36;2.95;;;1.60;;
11893;SDS011;6006;49.696;8.662;2023-09-19T02:39:03;3.45;;;1.38;;
11893;SDS011;6006;49.696;8.662;2023-09-19T02:41:33;4.20;;;1.33;;
11893;SDS011;6006;49.696;8.662;2023-09-19T02:44:00;2.90;;;1.58;;
11893;SDS011;6006;49.696;8.662;2023-09-19T02:46:27;1.52;;;1.20;;
11893;SDS011;6006;49.696;8.662;2023-09-19T02:48:54;2.05;;;1.60;;
11893;SDS011;6006;49.696;8.662;2023-09-19T02:51:21;1.42;;;1.30;;
11893;SDS011;6006;49.696;8.662;2023-09-19T02:53:49;2.65;;;1.65;;
11893;SDS011;6006;49.696;8.662;2023-09-19T02:56:17;2.55;;;1.50;;
11893;SDS011;6006;49.696;8.662;2023-09-19T02:58:44;2.90;;;1.52;;
11893;SDS011;6006;49.696;8.662;2023-09-19T03:01:13;2.65;;;1.73;;
11893;SDS011;6006;49.696;8.662;2023-09-19T03:03:40;1.85;;;1.67;;
11893;SDS011;6006;49.696;8.662;2023-09-19T03:06:07;3.33;;;1.75;;
11893;SDS011;6006;49.696;8.662;2023-09-19T03:08:34;3.25;;;1.60;;
11893;SDS011;6006;49.696;8.662;2023-09-19T03:11:05;4.80;;;1.85;;
11893;SDS011;6006;49.696;8.662;2023-09-19T03:13:36;1.90;;;1.80;;
11893;SDS011;6006;49.696;8.662;2023-09-19T03:16:03;1.58;;;1.38;;
11893;SDS011;6006;49.696;8.662;2023-09-19T03:18:31;1.98;;;1.77;;
11893;SDS011;6006;49.696;8.662;2023-09-19T03:20:58;2.13;;;2.00;;
11893;SDS011;6006;49.696;8.662;2023-09-19T03:23:26;1.83;;;1.73;;
11893;SDS011;6006;49.696;8.662;2023-09-19T03:25:53;4.22;;;2.08;;
11893;SDS011;6006;49.696;8.662;2023-09-19T03:28:22;2.55;;;1.73;;
11893;SDS011;6006;49.696;8.662;2023-09-19T03:30:57;2.03;;;1.80;;
11893;SDS011;6006;49.696;8.662;2023-09-19T03:33:25;3.78;;;1.58;;
11893;SDS011;6006;49.696;8.662;2023-09-19T03:35:52;1.88;;;1.73;;
11893;SDS011;6006;49.696;8.662;2023-09-19T03:38:19;3.72;;;1.77;;
11893;SDS011;6006;49.696;8.662;2023-09-19T03:40:46;1.80;;;1.63;;
11893;SDS011;6006;49.696;8.662;2023-09-19T03:43:13;1.58;;;1.42;;
11893;SDS011;6006;49.696;8.662;2023-09-19T03:45:42;1.92;;;1.45;;
11893;SDS011;6006;49.696;8.662;2023-09-19T03:48:10;1.40;;;1.27;;
11893;SDS011;6006;49.696;8.662;2023-09-19T03:50:37;2.15;;;1.80;;
11893;SDS011;6006;49.696;8.662;2023-09-19T03:53:04;1.60;;;1.50;;
11893;SDS011;6006;49.696;8.662;2023-09-19T03:55:32;3.78;;;2.28;;
11893;SDS011;6006;49.696;8.662;2023-09-19T03:58:00;1.50;;;1.40;;
11893;SDS011;6006;49.696;8.662;2023-09-19T04:00:27;3.75;;;1.90;;
11893;SDS011;6006;49.696;8.662;2023-09-19T04:02:56;6.10;;;2.20;;
11893;SDS011;6006;49.696;8.662;2023-09-19T04:05:23;1.73;;;1.63;;
11893;SDS011;6006;49.696;8.662;2023-09-19T04:07:50;2.63;;;1.67;;
11893;SDS011;6006;49.696;8.662;2023-09-19T04:10:17;2.50;;;1.75;;
11893;SDS011;6006;49.696;8.662;2023-09-19T04:12:50;1.73;;;1.63;;
11893;SDS011;6006;49.696;8.662;2023-09-19T04:15:18;2.20;;;1.90;;
11893;SDS011;6006;49.696;8.662;2023-09-19T04:17:45;3.37;;;2.20;;
11893;SDS011;6006;49.696;8.662;2023-09-19T04:20:13;2.97;;;2.20;;
11893;SDS011;6006;49.696;8.662;2023-09-19T04:22:41;2.60;;;2.40;;
11893;SDS011;6006;49.696;8.662;2023-09-19T04:25:08;2.55;;;1.90;;
11893;SDS011;6006;49.696;8.662;2023-09-19T04:27:35;2.57;;;2.37;;
11893;SDS011;6006;49.696;8.662;2023-09-19T04:30:03;2.60;;;2.40;;
11893;SDS011;6006;49.696;8.662;2023-09-19T04:32:35;2.63;;;2.43;;
11893;SDS011;6006;49.696;8.662;2023-09-19T04:35:04;3.53;;;2.27;;
11893;SDS011;6006;49.696;8.662;2023-09-19T04:37:36;4.43;;;2.60;;
11893;SDS011;6006;49.696;8.662;2023-09-19T04:40:05;3.30;;;2.80;;
11893;SDS011;6006;49.696;8.662;2023-09-19T04:42:37;3.57;;;2.60;;
11893;SDS011;6006;49.696;8.662;2023-09-19T04:45:05;3.03;;;2.77;;
11893;SDS011;6006;49.696;8.662;2023-09-19T04:47:34;7.77;;;3.17;;
11893;SDS011;6006;49.696;8.662;2023-09-19T04:50:03;5.13;;;3.10;;
11893;SDS011;6006;49.696;8.662;2023-09-19T04:52:31;6.10;;;3.17;;
11893;SDS011;6006;49.696;8.662;2023-09-19T04:54:59;4.33;;;2.90;;
11893;SDS011;6006;49.696;8.662;2023-09-19T04:57:27;5.07;;;3.73;;
11893;SDS011;6006;49.696;8.662;2023-09-19T04:59:54;5.80;;;3.47;;
11893;SDS011;6006;49.696;8.662;2023-09-19T05:02:21;6.57;;;3.73;;
11893;SDS011;6006;49.696;8.662;2023-09-19T05:04:48;4.07;;;3.50;;
11893;SDS011;6006;49.696;8.662;2023-09-19T05:07:15;4.10;;;3.53;;
11893;SDS011;6006;49.696;8.662;2023-09-19T05:09:42;4.13;;;3.30;;
11893;SDS011;6006;49.696;8.662;2023-09-19T05:12:10;5.00;;;3.50;;
11893;SDS011;6006;49.696;8.662;2023-09-19T05:14:37;4.30;;;3.87;;
11893;SDS011;6006;49.696;8.662;2023-09-19T05:17:05;4.90;;;3.97;;
11893;SDS011;6006;49.696;8.662;2023-09-19T05:19:32;6.00;;;4.43;;
11893;SDS011;6006;49.696;8.662;2023-09-19T05:22:00;4.13;;;3.73;;
11893;SDS011;6006;49.696;8.662;2023-09-19T05:24:29;6.70;;;4.40;;
11893;SDS011;6006;49.696;8.662;2023-09-19T05:26:56;5.07;;;4.37;;
11893;SDS011;6006;49.696;8.662;2023-09-19T05:29:24;6.33;;;4.90;;
11893;SDS011;6006;49.696;8.662;2023-09-19T05:31:51;6.53;;;5.00;;
11893;SDS011;6006;49.696;8.662;2023-09-19T05:34:19;6.20;;;4.20;;
11893;SDS011;6006;49.696;8.662;2023-09-19T05:36:46;4.90;;;4.43;;
11893;SDS011;6006;49.696;8.662;2023-09-19T05:39:14;7.17;;;4.10;;
11893;SDS011;6006;49.696;8.662;2023-09-19T05:41:41;7.90;;;4.47;;
11893;SDS011;6006;49.696;8.662;2023-09-19T05:44:08;4.60;;;4.20;;
11893;SDS011;6006;49.696;8.662;2023-09-19T05:46:36;6.27;;;4.17;;
11893;SDS011;6006;49.696;8.662;2023-09-19T05:49:03;4.70;;;4.20;;
11893;SDS011;6006;49.696;8.662;2023-09-19T05:51:30;6.10;;;4.17;;
11893;SDS011;6006;49.696;8.662;2023-09-19T05:53:57;5.10;;;4.00;;
11893;SDS011;6006;49.696;8.662;2023-09-19T05:56:23;7.00;;;3.90;;
11893;SDS011;6006;49.696;8.662;2023-09-19T05:58:50;6.43;;;3.90;;
11893;SDS011;6006;49.696;8.662;2023-09-19T06:01:18;5.37;;;4.00;;
11893;SDS011;6006;49.696;8.662;2023-09-19T06:03:46;5.97;;;4.27;;
11893;SDS011;6006;49.696;8.662;2023-09-19T06:06:13;6.17;;;3.67;;
11893;SDS011;6006;49.696;8.662;2023-09-19T06:08:40;3.90;;;3.60;;
11893;SDS011;6006;49.696;8.662;2023-09-19T06:11:09;5.70;;;3.67;;
11893;SDS011;6006;49.696;8.662;2023-09-19T06:13:36;4.70;;;3.90;;
11893;SDS011;6006;49.696;8.662;2023-09-19T06:16:04;4.57;;;3.50;;
11893;SDS011;6006;49.696;8.662;2023-09-19T06:18:31;5.20;;;3.50;;
11893;SDS011;6006;49.696;8.662;2023-09-19T06:21:01;5.77;;;3.50;;
11893;SDS011;6006;49.696;8.662;2023-09-19T06:23:30;4.53;;;3.22;;
11893;SDS011;6006;49.696;8.662;2023-09-19T06:25:57;5.25;;;3.20;;
11893;SDS011;6006;49.696;8.662;2023-09-19T06:28:24;6.38;;;3.20;;
11893;SDS011;6006;49.696;8.662;2023-09-19T06:30:53;8.93;;;5.13;;
11893;SDS011;6006;49.696;8.662;2023-09-19T06:33:20;5.10;;;2.95;;
11893;SDS011;6006;49.696;8.662;2023-09-19T06:35:47;4.35;;;2.70;;
11893;SDS011;6006;49.696;8.662;2023-09-19T06:38:17;3.42;;;2.67;;
11893;SDS011;6006;49.696;8.662;2023-09-19T06:40:44;2.55;;;2.38;;
11893;SDS011;6006;49.696;8.662;2023-09-19T06:43:11;5.95;;;2.72;;
11893;SDS011;6006;49.696;8.662;2023-09-19T06:45:39;3.65;;;2.20;;
11893;SDS011;6006;49.696;8.662;2023-09-19T06:48:07;3.95;;;2.13;;
11893;SDS011;6006;49.696;8.662;2023-09-19T06:50:35;4.72;;;2.30;;
11893;SDS011;6006;49.696;8.662;2023-09-19T06:53:03;5.65;;;2.20;;
11893;SDS011;6006;49.696;8.662;2023-09-19T06:55:32;2.75;;;1.95;;
11893;SDS011;6006;49.696;8.662;2023-09-19T06:57:59;2.75;;;2.00;;
11893;SDS011;6006;49.696;8.662;2023-09-19T07:00:26;3.53;;;2.13;;
11893;SDS011;6006;49.696;8.662;2023-09-19T07:02:56;2.45;;;1.80;;
11893;SDS011;6006;49.696;8.662;2023-09-19T07:05:25;3.03;;;1.90;;
11893;SDS011;6006;49.696;8.662;2023-09-19T07:07:53;3.42;;;2.30;;
11893;SDS011;6006;49.696;8.662;2023-09-19T07:10:21;2.88;;;2.17;;
11893;SDS011;6006;49.696;8.662;2023-09-19T07:12:55;2.40;;;2.15;;
11893;SDS011;6006;49.696;8.662;2023-09-19T07:15:23;3.67;;;2.05;;
11893;SDS011;6006;49.696;8.662;2023-09-19T07:17:50;2.25;;;2.00;;
11893;SDS011;6006;49.696;8.662;2023-09-19T07:20:18;2.25;;;1.50;;
11893;SDS011;6006;49.696;8.662;2023-09-19T07:22:46;3.55;;;1.73;;
11893;SDS011;6006;49.696;8.662;2023-09-19T07:25:13;3.63;;;1.60;;
11893;SDS011;6006;49.696;8.662;2023-09-19T07:27:40;3.08;;;1.88;;
11893;SDS011;6006;49.696;8.662;2023-09-19T07:30:12;2.38;;;1.73;;
11893;SDS011;6006;49.696;8.662;2023-09-19T07:32:40;2.67;;;1.67;;
11893;SDS011;6006;49.696;8.662;2023-09-19T07:35:07;2.42;;;1.50;;
11893;SDS011;6006;49.696;8.662;2023-09-19T07:37:34;2.53;;;1.58;;
11893;SDS011;6006;49.696;8.662;2023-09-19T07:40:01;3.30;;;1.52;;
11893;SDS011;6006;49.696;8.662;2023-09-19T07:42:32;2.75;;;1.42;;
11893;SDS011;6006;49.696;8.662;2023-09-19T07:45:00;4.70;;;1.40;;
11893;SDS011;6006;49.696;8.662;2023-09-19T07:47:28;3.25;;;1.58;;
11893;SDS011;6006;49.696;8.662;2023-09-19T07:49:57;4.20;;;1.20;;
11893;SDS011;6006;49.696;8.662;2023-09-19T07:52:25;3.35;;;1.35;;
11893;SDS011;6006;49.696;8.662;2023-09-19T07:54:52;2.55;;;1.45;;
11893;SDS011;6006;49.696;8.662;2023-09-19T07:57:19;1.27;;;1.17;;
11893;SDS011;6006;49.696;8.662;2023-09-19T07:59:46;2.30;;;1.30;;
11893;SDS011;6006;49.696;8.662;2023-09-19T08:02:13;3.33;;;1.33;;
11893;SDS011;6006;49.696;8.662;2023-09-19T08:04:43;2.60;;;1.40;;
11893;SDS011;6006;49.696;8.662;2023-09-19T08:07:11;2.13;;;1.42;;
11893;SDS011;6006;49.696;8.662;2023-09-19T08:09:38;2.20;;;1.10;;
11893;SDS011;6006;49.696;8.662;2023-09-19T08:12:05;2.55;;;1.33;;
11893;SDS011;6006;49.696;8.662;2023-09-19T08:14:35;4.25;;;1.42;;
11893;SDS011;6006;49.696;8.662;2023-09-19T08:17:03;2.65;;;1.30;;
11893;SDS011;6006;49.696;8.662;2023-09-19T08:19:30;1.27;;;0.95;;
11893;SDS011;6006;49.696;8.662;2023-09-19T08:21:59;2.28;;;1.33;;
11893;SDS011;6006;49.696;8.662;2023-09-19T08:24:26;5.85;;;1.60;;
11893;SDS011;6006;49.696;8.662;2023-09-19T08:26:55;2.90;;;1.25;;
11893;SDS011;6006;49.696;8.662;2023-09-19T08:29:22;4.00;;;1.45;;
11893;SDS011;6006;49.696;8.662;2023-09-19T08:31:53;3.70;;;1.23;;
11893;SDS011;6006;49.696;8.662;2023-09-19T08:34:21;4.85;;;1.15;;
11893;SDS011;6006;49.696;8.662;2023-09-19T08:36:48;4.50;;;1.10;;
11893;SDS011;6006;49.696;8.662;2023-09-19T08:39:19;2.83;;;1.20;;
11893;SDS011;6006;49.696;8.662;2023-09-19T08:41:46;4.07;;;1.30;;
11893;SDS011;6006;49.696;8.662;2023-09-19T08:44:12;6.53;;;1.38;;
11893;SDS011;6006;49.696;8.662;2023-09-19T08:46:40;5.28;;;1.38;;
11893;SDS011;6006;49.696;8.662;2023-09-19T08:49:08;2.95;;;1.33;;
11893;SDS011;6006;49.696;8.662;2023-09-19T08:51:47;2.78;;;1.02;;
11893;SDS011;6006;49.696;8.662;2023-09-19T08:54:25;2.70;;;1.02;;
11893;SDS011;6006;49.696;8.662;2023-09-19T08:56:54;1.20;;;1.10;;
11893;SDS011;6006;49.696;8.662;2023-09-19T08:59:27;4.63;;;1.55;;
11893;SDS011;6006;49.696;8.662;2023-09-19T09:01:55;2.63;;;0.98;;
11893;SDS011;6006;49.696;8.662;2023-09-19T09:04:24;3.63;;;1.00;;
11893;SDS011;6006;49.696;8.662;2023-09-19T09:06:52;1.40;;;1.02;;
11893;SDS011;6006;49.696;8.662;2023-09-19T09:09:20;1.60;;;0.82;;
11893;SDS011;6006;49.696;8.662;2023-09-19T09:11:49;2.58;;;1.38;;
11893;SDS011;6006;49.696;8.662;2023-09-19T09:14:18;3.95;;;1.13;;
11893;SDS011;6006;49.696;8.662;2023-09-19T09:16:46;2.72;;;1.27;;
11893;SDS011;6006;49.696;8.662;2023-09-19T09:19:13;0.90;;;0.90;;
11893;SDS011;6006;49.696;8.662;2023-09-19T09:21:49;2.78;;;1.20;;
11893;SDS011;6006;49.696;8.662;2023-09-19T09:24:28;2.67;;;1.20;;
11893;SDS011;6006;49.696;8.662;2023-09-19T09:27:00;3.70;;;1.23;;
11893;SDS011;6006;49.696;8.662;2023-09-19T09:29:42;2.03;;;1.13;;
11893;SDS011;6006;49.696;8.662;2023-09-19T09:32:19;1.10;;;0.90;;
11893;SDS011;6006;49.696;8.662;2023-09-19T09:34:48;2.95;;;0.80;;
11893;SDS011;6006;49.696;8.662;2023-09-19T09:37:18;2.78;;;1.17;;
11893;SDS011;6006;49.696;8.662;2023-09-19T09:39:50;2.58;;;1.15;;
11893;SDS011;6006;49.696;8.662;2023-09-19T09:42:33;1.48;;;1.23;;
11893;SDS011;6006;49.696;8.662;2023-09-19T09:45:16;1.33;;;1.05;;
11893;SDS011;6006;49.696;8.662;2023-09-19T09:47:53;5.13;;;1.27;;
11893;SDS011;6006;49.696;8.662;2023-09-19T09:50:27;3.50;;;1.58;;
11893;SDS011;6006;49.696;8.662;2023-09-19T09:53:02;3.85;;;1.13;;
11893;SDS011;6006;49.696;8.662;2023-09-19T09:55:39;5.82;;;1.20;;
11893;SDS011;6006;49.696;8.662;2023-09-19T09:58:26;4.47;;;1.25;;
11893;SDS011;6006;49.696;8.662;2023-09-19T10:00:55;2.20;;;1.00;;
11893;SDS011;6006;49.696;8.662;2023-09-19T10:03:31;2.28;;;1.02;;
11893;SDS011;6006;49.696;8.662;2023-09-19T10:06:03;3.08;;;1.20;;
11893;SDS011;6006;49.696;8.662;2023-09-19T10:09:02;2.65;;;1.00;;
11893;SDS011;6006;49.696;8.662;2023-09-19T10:11:38;2.97;;;1.10;;
11893;SDS011;6006;49.696;8.662;2023-09-19T10:14:13;2.58;;;0.98;;
11893;SDS011;6006;49.696;8.662;2023-09-19T10:16:45;1.83;;;1.15;;
11893;SDS011;6006;49.696;8.662;2023-09-19T10:19:15;1.80;;;0.90;;
11893;SDS011;6006;49.696;8.662;2023-09-19T10:21:48;2.35;;;0.98;;
11893;SDS011;6006;49.696;8.662;2023-09-19T10:24:16;3.05;;;1.05;;
11893;SDS011;6006;49.696;8.662;2023-09-19T10:26:45;2.83;;;1.02;;
11893;SDS011;6006;49.696;8.662;2023-09-19T10:29:17;3.20;;;1.63;;
11893;SDS011;6006;49.696;8.662;2023-09-19T10:31:44;5.35;;;1.33;;
11893;SDS011;6006;49.696;8.662;2023-09-19T10:34:15;2.72;;;1.38;;
11893;SDS011;6006;49.696;8.662;2023-09-19T10:36:44;2.05;;;1.20;;
11893;SDS011;6006;49.696;8.662;2023-09-19T10:39:13;3.55;;;1.05;;
11893;SDS011;6006;49.696;8.662;2023-09-19T10:41:43;4.45;;;1.00;;
11893;SDS011;6006;49.696;8.662;2023-09-19T10:44:21;1.95;;;1.10;;
11893;SDS011;6006;49.696;8.662;2023-09-19T10:46:50;4.15;;;1.33;;
11893;SDS011;6006;49.696;8.662;2023-09-19T10:49:18;2.08;;;1.00;;
11893;SDS011;6006;49.696;8.662;2023-09-19T10:51:46;4.03;;;1.30;;
11893;SDS011;6006;49.696;8.662;2023-09-19T10:54:16;1.75;;;0.90;;
11893;SDS011;6006;49.696;8.662;2023-09-19T10:56:46;3.50;;;1.17;;
11893;SDS011;6006;49.696;8.662;2023-09-19T10:59:17;2.83;;;0.85;;
11893;SDS011;6006;49.696;8.662;2023-09-19T11:01:47;2.58;;;1.10;;
11893;SDS011;6006;49.696;8.662;2023-09-19T11:04:29;4.70;;;1.35;;
11893;SDS011;6006;49.696;8.662;2023-09-19T11:07:00;3.60;;;1.30;;
11893;SDS011;6006;49.696;8.662;2023-09-19T11:09:45;3.42;;;1.35;;
11893;SDS011;6006;49.696;8.662;2023-09-19T11:24:27;1.88;;;1.00;;
11893;SDS011;6006;49.696;8.662;2023-09-19T11:27:09;2.17;;;1.10;;
11893;SDS011;6006;49.696;8.662;2023-09-19T11:29:38;6.18;;;1.38;;
11893;SDS011;6006;49.696;8.662;2023-09-19T11:32:06;3.50;;;1.15;;
11893;SDS011;6006;49.696;8.662;2023-09-19T11:34:45;2.13;;;1.10;;
11893;SDS011;6006;49.696;8.662;2023-09-19T11:40:36;1.88;;;1.10;;
11893;SDS011;6006;49.696;8.662;2023-09-19T11:46:06;5.28;;;1.38;;
11893;SDS011;6006;49.696;8.662;2023-09-19T11:48:34;2.38;;;1.15;;
11893;SDS011;6006;49.696;8.662;2023-09-19T11:53:53;3.85;;;1.15;;
11893;SDS011;6006;49.696;8.662;2023-09-19T11:56:21;3.85;;;1.27;;
11893;SDS011;6006;49.696;8.662;2023-09-19T11:58:53;3.38;;;1.27;;
11893;SDS011;6006;49.696;8.662;2023-09-19T12:01:22;1.40;;;0.90;;
11893;SDS011;6006;49.696;8.662;2023-09-19T12:03:52;1.52;;;1.17;;
11893;SDS011;6006;49.696;8.662;2023-09-19T12:06:22;3.22;;;1.08;;
11893;SDS011;6006;49.696;8.662;2023-09-19T12:08:51;1.67;;;1.10;;
11893;SDS011;6006;49.696;8.662;2023-09-19T12:11:19;2.38;;;1.08;;
11893;SDS011;6006;49.696;8.662;2023-09-19T12:13:48;0.90;;;0.82;;
11893;SDS011;6006;49.696;8.662;2023-09-19T12:16:16;1.45;;;0.93;;
11893;SDS011;6006;49.696;8.662;2023-09-19T12:18:46;6.88;;;1.60;;
11893;SDS011;6006;49.696;8.662;2023-09-19T12:21:25;2.00;;;1.13;;
11893;SDS011;6006;49.696;8.662;2023-09-19T12:26:44;3.10;;;1.25;;
11893;SDS011;6006;49.696;8.662;2023-09-19T12:29:13;2.47;;;1.17;;
11893;SDS011;6006;49.696;8.662;2023-09-19T12:31:49;2.08;;;1.00;;
11893;SDS011;6006;49.696;8.662;2023-09-19T12:34:22;1.95;;;0.93;;
11893;SDS011;6006;49.696;8.662;2023-09-19T12:37:03;1.38;;;1.08;;
11893;SDS011;6006;49.696;8.662;2023-09-19T12:39:39;3.30;;;1.10;;
11893;SDS011;6006;49.696;8.662;2023-09-19T12:42:08;1.48;;;1.20;;
11893;SDS011;6006;49.696;8.662;2023-09-19T12:44:40;2.78;;;1.13;;
11893;SDS011;6006;49.696;8.662;2023-09-19T12:47:09;2.55;;;0.90;;
11893;SDS011;6006;49.696;8.662;2023-09-19T12:52:40;1.83;;;0.95;;
11893;SDS011;6006;49.696;8.662;2023-09-19T12:55:20;2.65;;;1.00;;
11893;SDS011;6006;49.696;8.662;2023-09-19T13:00:36;1.98;;;0.90;;
11893;SDS011;6006;49.696;8.662;2023-09-19T13:03:17;2.25;;;0.98;;
11893;SDS011;6006;49.696;8.662;2023-09-19T13:05:50;4.43;;;0.98;;
11893;SDS011;6006;49.696;8.662;2023-09-19T13:08:23;2.25;;;0.68;;
11893;SDS011;6006;49.696;8.662;2023-09-19T13:11:06;4.00;;;1.02;;
11893;SDS011;6006;49.696;8.662;2023-09-19T13:13:39;1.48;;;0.90;;
11893;SDS011;6006;49.696;8.662;2023-09-19T13:16:09;2.13;;;0.90;;
11893;SDS011;6006;49.696;8.662;2023-09-19T13:18:43;3.55;;;0.98;;
11893;SDS011;6006;49.696;8.662;2023-09-19T13:21:11;1.92;;;0.70;;
11893;SDS011;6006;49.696;8.662;2023-09-19T13:23:49;3.03;;;0.90;;
11893;SDS011;6006;49.696;8.662;2023-09-19T13:26:18;1.77;;;0.52;;
11893;SDS011;6006;49.696;8.662;2023-09-19T13:28:45;1.55;;;0.68;;
11893;SDS011;6006;49.696;8.662;2023-09-19T13:31:14;2.20;;;0.85;;
11893;SDS011;6006;49.696;8.662;2023-09-19T13:33:44;1.15;;;0.70;;
11893;SDS011;6006;49.696;8.662;2023-09-19T13:36:12;1.73;;;0.80;;
11893;SDS011;6006;49.696;8.662;2023-09-19T13:38:39;1.08;;;0.60;;
11893;SDS011;6006;49.696;8.662;2023-09-19T13:41:07;1.80;;;0.70;;
11893;SDS011;6006;49.696;8.662;2023-09-19T13:43:36;1.13;;;0.70;;
11893;SDS011;6006;49.696;8.662;2023-09-19T13:46:04;0.80;;;0.80;;
11893;SDS011;6006;49.696;8.662;2023-09-19T13:48:32;1.92;;;0.80;;
11893;SDS011;6006;49.696;8.662;2023-09-19T13:51:01;2.20;;;0.93;;
11893;SDS011;6006;49.696;8.662;2023-09-19T13:53:29;1.25;;;1.00;;
11893;SDS011;6006;49.696;8.662;2023-09-19T13:55:55;0.70;;;0.70;;
11893;SDS011;6006;49.696;8.662;2023-09-19T13:58:22;1.88;;;0.70;;
11893;SDS011;6006;49.696;8.662;2023-09-19T14:00:51;2.78;;;0.68;;
11893;SDS011;6006;49.696;8.662;2023-09-19T14:03:20;1.60;;;0.70;;
11893;SDS011;6006;49.696;8.662;2023-09-19T14:05:47;1.70;;;0.98;;
11893;SDS011;6006;49.696;8.662;2023-09-19T14:08:16;1.20;;;0.90;;
11893;SDS011;6006;49.696;8.662;2023-09-19T14:10:43;1.75;;;0.70;;
11893;SDS011;6006;49.696;8.662;2023-09-19T14:13:10;3.28;;;0.80;;
11893;SDS011;6006;49.696;8.662;2023-09-19T14:15:38;2.75;;;0.90;;
11893;SDS011;6006;49.696;8.662;2023-09-19T14:18:06;0.85;;;0.75;;
11893;SDS011;6006;49.696;8.662;2023-09-19T14:20:37;2.75;;;0.90;;
11893;SDS011;6006;49.696;8.662;2023-09-19T14:23:05;1.10;;;0.90;;
11893;SDS011;6006;49.696;8.662;2023-09-19T14:25:33;2.92;;;0.90;;
11893;SDS011;6006;49.696;8.662;2023-09-19T14:28:01;2.13;;;0.90;;
11893;SDS011;6006;49.696;8.662;2023-09-19T14:30:28;2.15;;;0.82;;
11893;SDS011;6006;49.696;8.662;2023-09-19T14:32:55;0.98;;;0.80;;
11893;SDS011;6006;49.696;8.662;2023-09-19T14:35:24;2.15;;;1.13;;
11893;SDS011;6006;49.696;8.662;2023-09-19T14:37:51;3.83;;;1.10;;
11893;SDS011;6006;49.696;8.662;2023-09-19T14:40:19;2.55;;;0.80;;
11893;SDS011;6006;49.696;8.662;2023-09-19T14:42:47;1.00;;;0.80;;
11893;SDS011;6006;49.696;8.662;2023-09-19T14:45:14;0.70;;;0.60;;
11893;SDS011;6006;49.696;8.662;2023-09-19T14:47:43;1.63;;;1.02;;
11893;SDS011;6006;49.696;8.662;2023-09-19T14:50:12;1.00;;;0.85;;
11893;SDS011;6006;49.696;8.662;2023-09-19T14:52:41;1.17;;;0.68;;
11893;SDS011;6006;49.696;8.662;2023-09-19T14:55:09;1.60;;;0.88;;
11893;SDS011;6006;49.696;8.662;2023-09-19T14:57:39;2.30;;;0.70;;
11893;SDS011;6006;49.696;8.662;2023-09-19T15:00:09;3.03;;;0.80;;
11893;SDS011;6006;49.696;8.662;2023-09-19T15:02:37;1.50;;;0.75;;
11893;SDS011;6006;49.696;8.662;2023-09-19T15:05:05;3.00;;;0.80;;
11893;SDS011;6006;49.696;8.662;2023-09-19T15:07:33;1.05;;;0.70;;
11893;SDS011;6006;49.696;8.662;2023-09-19T15:10:03;1.58;;;0.60;;
11893;SDS011;6006;49.696;8.662;2023-09-19T15:12:32;3.72;;;0.75;;
11893;SDS011;6006;49.696;8.662;2023-09-19T15:15:00;2.58;;;0.75;;
11893;SDS011;6006;49.696;8.662;2023-09-19T15:17:27;2.05;;;0.80;;
11893;SDS011;6006;49.696;8.662;2023-09-19T15:19:54;1.38;;;0.68;;
11893;SDS011;6006;49.696;8.662;2023-09-19T15:22:21;1.60;;;0.80;;
11893;SDS011;6006;49.696;8.662;2023-09-19T15:24:48;1.00;;;0.73;;
11893;SDS011;6006;49.696;8.662;2023-09-19T15:27:17;1.88;;;1.08;;
11893;SDS011;6006;49.696;8.662;2023-09-19T15:29:44;2.38;;;0.63;;
11893;SDS011;6006;49.696;8.662;2023-09-19T15:32:12;1.55;;;0.77;;
11893;SDS011;6006;49.696;8.662;2023-09-19T15:34:39;1.70;;;0.50;;
11893;SDS011;6006;49.696;8.662;2023-09-19T15:37:06;1.13;;;0.50;;
11893;SDS011;6006;49.696;8.662;2023-09-19T15:39:34;0.73;;;0.70;;
11893;SDS011;6006;49.696;8.662;2023-09-19T15:42:02;0.85;;;0.60;;
11893;SDS011;6006;49.696;8.662;2023-09-19T15:44:31;1.95;;;0.80;;
11893;SDS011;6006;49.696;8.662;2023-09-19T15:46:58;1.15;;;0.77;;